Arctika — UCKH — position and weather

sailwx.info

Track history (hours):
 
Tides and Currents Weather Stations Pressure Air Temp Water Temp Dewpoint Dewpoint Depression Visibility Wind Speed Wind Dir Waves Ship Positions

Arctika

Last reported at 2019-Mar-15 22:48 UTC. Time now 2019-Mar-22 05:58 UTC.
Position N 44°35' E 037°37'.

Length 148 m; beam 28 m.

Type: Fishing. MMSI: 273374740.

Date/timePositionNaut miles runAvg speedWind from/ knotsBaromVisibWave heightAir tempDewpointWater temp
2019-Mar-15 22:48N 44°35' E 037°37'3 8.7
2019-Mar-15 22:27N 44°34' E 037°42'4 8.8
2019-Mar-15 21:59N 44°33' E 037°47'5 8.9
2019-Mar-15 21:28N 44°31' E 037°53'4 8.8
2019-Mar-15 21:00N 44°29' E 037°58'  
2019-Mar-13 07:46N 44°10' E 038°53'0 0.4
2019-Mar-13 07:31N 44°10' E 038°53'2 2.4
2019-Mar-13 06:50N 44°10' E 038°55'0 0.0
2019-Mar-13 06:23N 44°10' E 038°55'2 5.9
2019-Mar-13 06:00N 44°10' E 038°52'2 0.5
2019-Mar-13 03:01N 44°10' E 038°54'0 3.2
2019-Mar-13 02:59N 44°09' E 038°54'3 2.7
2019-Mar-13 01:49N 44°07' E 038°57'1 3.3
2019-Mar-13 01:30N 44°06' E 038°58'2 3.2
2019-Mar-13 01:00N 44°05' E 038°60'2 3.2
2019-Mar-13 00:30N 44°04' E 039°01'2 3.3
2019-Mar-13 00:00N 44°03' E 039°03'2 3.3
2019-Mar-12 23:30N 44°02' E 039°05'2 3.3
2019-Mar-12 23:00N 44°01' E 039°06'2 3.1
2019-Mar-12 22:31N 44°00' E 039°08'1 1.9
2019-Mar-12 21:59N 43°60' E 039°07'0 0.3
2019-Mar-12 21:16N 43°60' E 039°07'0 0.4
2019-Mar-12 20:58N 43°60' E 039°07'1 2.7
2019-Mar-12 20:30N 44°01' E 039°07'0 0.9
2019-Mar-12 20:00N 44°01' E 039°07'1 1.1
2019-Mar-12 19:31N 44°00' E 039°08'0 0.7
2019-Mar-12 19:00N 44°00' E 039°08'1 2.4
2019-Mar-12 18:30N 44°01' E 039°06'1 2.8
2019-Mar-12 18:01N 44°02' E 039°05'1 2.7
2019-Mar-12 17:30N 44°03' E 039°03'1 2.7
2019-Mar-12 17:00N 44°04' E 039°02'1 2.9
2019-Mar-12 16:30N 44°05' E 039°00'1 3.0
2019-Mar-12 16:00N 44°05' E 038°58'2 3.1
2019-Mar-12 15:30N 44°06' E 038°57'2 3.2
2019-Mar-12 15:00N 44°07' E 038°55'2 3.4
2019-Mar-12 14:30N 44°08' E 038°53'2 1.4
2019-Mar-12 12:56N 44°10' E 038°55'2 5.4
2019-Mar-12 12:30N 44°08' E 038°54'1 2.6
2019-Mar-12 11:56N 44°07' E 038°56'2 3.2
2019-Mar-12 11:27N 44°07' E 038°58'1 3.0
2019-Mar-12 11:00N 44°05' E 038°59'1 2.9
2019-Mar-12 10:30N 44°06' E 038°57'2 3.0
2019-Mar-12 10:00N 44°08' E 038°56'2 3.2
2019-Mar-12 09:30N 44°09' E 038°55'0 0.3
2019-Mar-12 08:50N 44°09' E 038°55'0 0.3
2019-Mar-12 08:20N 44°08' E 038°55'0 0.5
2019-Mar-12 07:53N 44°08' E 038°54'1 1.8
2019-Mar-12 07:26N 44°08' E 038°55'1 2.9
2019-Mar-12 06:59N 44°07' E 038°57'2 3.2
2019-Mar-12 06:30N 44°06' E 038°58'1 1.0
2019-Mar-12 06:00N 44°05' E 038°58'1 1.8
2019-Mar-12 05:29N 44°06' E 038°58'1 1.7
2019-Mar-12 05:01N 44°06' E 038°58'1 2.5
2019-Mar-12 04:30N 44°07' E 038°57'2 3.2
2019-Mar-12 03:47N 44°08' E 038°55'1 3.1
2019-Mar-12 03:30N 44°09' E 038°54'  
2019-Mar-09 12:09N 44°08' E 038°54'2 2.5
2019-Mar-09 11:25N 44°07' E 038°56'1 2.9
2019-Mar-09 11:00N 44°06' E 038°57'1 1.8
2019-Mar-09 10:29N 44°05' E 038°58'3 6.4
2019-Mar-09 10:00N 44°04' E 039°01'5 9.0
2019-Mar-09 09:30N 44°00' E 039°05'5 9.0
2019-Mar-09 08:59N 43°57' E 039°10'  
Track history (hours):
 
Tides and Currents Weather Stations Pressure Air Temp Water Temp Dewpoint Dewpoint Depression Visibility Wind Speed Wind Dir Waves Ship Positions

Arctika

Last reported at 2019-Mar-15 22:48 UTC. Time now 2019-Mar-22 05:58 UTC.
Position N 44°35' E 037°37'.

Length 148 m; beam 28 m.

Type: Fishing. MMSI: 273374740.

Date/timePositionNaut miles runAvg speedWind from/ knotsBaromVisibWave heightAir tempDewpointWater temp
2019-Mar-15 22:48N 44°35' E 037°37'3 8.7
2019-Mar-15 22:27N 44°34' E 037°42'4 8.8
2019-Mar-15 21:59N 44°33' E 037°47'5 8.9
2019-Mar-15 21:28N 44°31' E 037°53'4 8.8
2019-Mar-15 21:00N 44°29' E 037°58'  
2019-Mar-13 07:46N 44°10' E 038°53'0 0.4
2019-Mar-13 07:31N 44°10' E 038°53'2 2.4
2019-Mar-13 06:50N 44°10' E 038°55'0 0.0
2019-Mar-13 06:23N 44°10' E 038°55'2 5.9
2019-Mar-13 06:00N 44°10' E 038°52'2 0.5
2019-Mar-13 03:01N 44°10' E 038°54'0 3.2
2019-Mar-13 02:59N 44°09' E 038°54'3 2.7
2019-Mar-13 01:49N 44°07' E 038°57'1 3.3
2019-Mar-13 01:30N 44°06' E 038°58'2 3.2
2019-Mar-13 01:00N 44°05' E 038°60'2 3.2
2019-Mar-13 00:30N 44°04' E 039°01'2 3.3
2019-Mar-13 00:00N 44°03' E 039°03'2 3.3
2019-Mar-12 23:30N 44°02' E 039°05'2 3.3
2019-Mar-12 23:00N 44°01' E 039°06'2 3.1
2019-Mar-12 22:31N 44°00' E 039°08'1 1.9
2019-Mar-12 21:59N 43°60' E 039°07'0 0.3
2019-Mar-12 21:16N 43°60' E 039°07'0 0.4
2019-Mar-12 20:58N 43°60' E 039°07'1 2.7
2019-Mar-12 20:30N 44°01' E 039°07'0 0.9
2019-Mar-12 20:00N 44°01' E 039°07'1 1.1
2019-Mar-12 19:31N 44°00' E 039°08'0 0.7
2019-Mar-12 19:00N 44°00' E 039°08'1 2.4
2019-Mar-12 18:30N 44°01' E 039°06'1 2.8
2019-Mar-12 18:01N 44°02' E 039°05'1 2.7
2019-Mar-12 17:30N 44°03' E 039°03'1 2.7
2019-Mar-12 17:00N 44°04' E 039°02'1 2.9
2019-Mar-12 16:30N 44°05' E 039°00'1 3.0
2019-Mar-12 16:00N 44°05' E 038°58'2 3.1
2019-Mar-12 15:30N 44°06' E 038°57'2 3.2
2019-Mar-12 15:00N 44°07' E 038°55'2 3.4
2019-Mar-12 14:30N 44°08' E 038°53'2 1.4
2019-Mar-12 12:56N 44°10' E 038°55'2 5.4
2019-Mar-12 12:30N 44°08' E 038°54'1 2.6
2019-Mar-12 11:56N 44°07' E 038°56'2 3.2
2019-Mar-12 11:27N 44°07' E 038°58'1 3.0
2019-Mar-12 11:00N 44°05' E 038°59'1 2.9
2019-Mar-12 10:30N 44°06' E 038°57'2 3.0
2019-Mar-12 10:00N 44°08' E 038°56'2 3.2
2019-Mar-12 09:30N 44°09' E 038°55'0 0.3
2019-Mar-12 08:50N 44°09' E 038°55'0 0.3
2019-Mar-12 08:20N 44°08' E 038°55'0 0.5
2019-Mar-12 07:53N 44°08' E 038°54'1 1.8
2019-Mar-12 07:26N 44°08' E 038°55'1 2.9
2019-Mar-12 06:59N 44°07' E 038°57'2 3.2
2019-Mar-12 06:30N 44°06' E 038°58'1 1.0
2019-Mar-12 06:00N 44°05' E 038°58'1 1.8
2019-Mar-12 05:29N 44°06' E 038°58'1 1.7
2019-Mar-12 05:01N 44°06' E 038°58'1 2.5
2019-Mar-12 04:30N 44°07' E 038°57'2 3.2
2019-Mar-12 03:47N 44°08' E 038°55'1 3.1
2019-Mar-12 03:30N 44°09' E 038°54'  
2019-Mar-09 12:09N 44°08' E 038°54'2 2.5
2019-Mar-09 11:25N 44°07' E 038°56'1 2.9
2019-Mar-09 11:00N 44°06' E 038°57'1 1.8
2019-Mar-09 10:29N 44°05' E 038°58'3 6.4
2019-Mar-09 10:00N 44°04' E 039°01'5 9.0
2019-Mar-09 09:30N 44°00' E 039°05'5 9.0
2019-Mar-09 08:59N 43°57' E 039°10'  

Dump ship's entire track history